Time;durP1;ratioP1;P1;durP2;ratioP2;P2;SDS_P1;SDS_P2;PMS_P1;PMS_P2;Temp;Humidity;BMP_temperature;BMP_pressure;BME280_temperature;BME280_humidity;BME280_pressure;Samples;Min_cycle;Max_cycle;Signal;HPM_P1;HPM_P2
2023/04/26 00:00:23;;;;;;;18.50;5.30;;;14.00;96.70;;;;;;4962850;28;20124;-71
2023/04/26 00:02:52;;;;;;;18.50;5.45;;;14.10;96.70;;;;;;4964167;28;20646;-71
2023/04/26 00:05:23;;;;;;;13.45;5.38;;;14.10;96.70;;;;;;4966278;28;20050;-70
2023/04/26 00:08:03;;;;;;;15.52;5.28;;;14.20;96.70;;;;;;4963008;28;20051;-71
2023/04/26 00:10:32;;;;;;;10.48;5.13;;;14.20;96.70;;;;;;4964425;28;20049;-71
2023/04/26 00:13:25;;;;;;;14.77;6.35;;;14.20;96.70;;;;;;4964103;28;20042;-71
2023/04/26 00:15:53;;;;;;;18.10;6.60;;;14.30;96.70;;;;;;4955334;28;20046;-71
2023/04/26 00:18:22;;;;;;;16.42;7.65;;;14.20;96.70;;;;;;4963904;28;20106;-71
2023/04/26 00:20:51;;;;;;;11.13;6.80;;;14.20;96.70;;;;;;4964682;28;20050;-71
2023/04/26 00:23:20;;;;;;;11.82;7.32;;;14.10;96.70;;;;;;4962389;28;20077;-71
2023/04/26 00:25:48;;;;;;;13.23;7.13;;;14.20;96.70;;;;;;4964388;28;20433;-71
2023/04/26 00:28:16;;;;;;;11.95;7.35;;;14.30;96.70;;;;;;4962329;28;20556;-71
2023/04/26 00:30:47;;;;;;;22.55;7.35;;;14.30;96.70;;;;;;4962014;28;20195;-71
2023/04/26 00:33:15;;;;;;;20.02;6.78;;;14.30;96.70;;;;;;4964290;28;20121;-71
2023/04/26 00:35:43;;;;;;;12.30;6.18;;;14.30;96.70;;;;;;4962369;28;20039;-71
2023/04/26 00:38:13;;;;;;;8.35;6.07;;;14.30;96.70;;;;;;4964011;28;20047;-71
2023/04/26 00:40:41;;;;;;;17.75;6.32;;;14.30;96.70;;;;;;4963780;28;20053;-71
2023/04/26 00:43:10;;;;;;;15.30;5.97;;;14.30;96.70;;;;;;4961623;28;20420;-71
2023/04/26 00:45:38;;;;;;;11.88;6.22;;;14.20;96.70;;;;;;4959711;28;20159;-71
2023/04/26 00:48:07;;;;;;;16.85;6.03;;;14.20;96.70;;;;;;4964120;28;20074;-71
2023/04/26 00:50:35;;;;;;;10.93;5.95;;;14.10;96.70;;;;;;4962644;28;20049;-71
2023/04/26 00:53:04;;;;;;;10.10;5.90;;;14.10;96.70;;;;;;4962462;28;20051;-71
2023/04/26 00:55:35;;;;;;;10.07;5.18;;;14.20;96.70;;;;;;4965313;28;20729;-71
2023/04/26 00:58:04;;;;;;;15.73;5.15;;;14.10;96.70;;;;;;4962363;28;20125;-71
2023/04/26 01:00:32;;;;;;;6.93;4.43;;;14.10;96.70;;;;;;4963856;28;20495;-71
2023/04/26 01:03:00;;;;;;;6.07;3.90;;;14.00;96.70;;;;;;4962251;28;20581;-72
2023/04/26 01:05:28;;;;;;;7.95;3.92;;;14.00;96.70;;;;;;4963241;28;20146;-70
2023/04/26 01:07:58;;;;;;;3.88;3.42;;;14.00;96.70;;;;;;4963108;28;20062;-71
2023/04/26 01:10:28;;;;;;;6.97;3.33;;;14.10;96.70;;;;;;4946440;28;20046;-71
2023/04/26 01:12:59;;;;;;;4.40;3.00;;;14.10;96.70;;;;;;4963256;28;20405;-71
2023/04/26 01:15:29;;;;;;;3.35;3.05;;;14.10;96.70;;;;;;4966876;28;20046;-71
2023/04/26 01:17:57;;;;;;;3.33;2.80;;;14.00;96.70;;;;;;4968497;28;20054;-71
2023/04/26 01:20:25;;;;;;;2.50;2.30;;;13.90;96.70;;;;;;4960800;28;20147;-70
2023/04/26 01:22:56;;;;;;;2.60;2.40;;;13.90;96.70;;;;;;4961761;28;20076;-70
2023/04/26 01:25:25;;;;;;;2.25;2.03;;;13.80;96.70;;;;;;4960090;28;20514;-70
2023/04/26 01:27:53;;;;;;;2.95;2.30;;;13.70;96.70;;;;;;4962685;28;20039;-71
2023/04/26 01:30:24;;;;;;;2.53;2.28;;;13.60;96.70;;;;;;4961915;28;20509;-71
2023/04/26 01:32:54;;;;;;;3.28;2.30;;;13.60;96.70;;;;;;4962805;28;20059;-71
2023/04/26 01:35:25;;;;;;;6.57;2.53;;;13.60;96.70;;;;;;4963436;28;20035;-71
2023/04/26 01:37:53;;;;;;;4.00;2.50;;;13.60;96.70;;;;;;4961305;28;20047;-71
2023/04/26 01:40:22;;;;;;;5.72;2.70;;;13.60;96.70;;;;;;4963398;28;20385;-71
2023/04/26 01:42:50;;;;;;;3.13;2.72;;;13.60;96.70;;;;;;4961477;28;20061;-70
2023/04/26 01:45:18;;;;;;;5.38;2.63;;;13.60;96.70;;;;;;4945925;28;20062;-71
2023/04/26 01:48:05;;;;;;;4.03;2.50;;;13.60;96.70;;;;;;4963895;28;20054;-71
2023/04/26 01:50:57;;;;;;;3.92;2.40;;;13.60;96.70;;;;;;4960970;28;20528;-70
2023/04/26 01:53:25;;;;;;;2.45;1.98;;;13.60;96.70;;;;;;4946242;28;20051;-71
2023/04/26 01:55:55;;;;;;;3.92;2.00;;;13.60;96.70;;;;;;4964883;28;20039;-71
2023/04/26 01:58:23;;;;;;;2.45;1.92;;;13.50;96.70;;;;;;4961646;28;20050;-71
2023/04/26 02:00:51;;;;;;;2.78;1.83;;;13.50;96.70;;;;;;4961401;28;20094;-71
2023/04/26 02:03:20;;;;;;;2.17;1.80;;;13.40;96.70;;;;;;4945604;28;20059;-71
2023/04/26 02:05:50;;;;;;;2.05;1.63;;;13.40;96.70;;;;;;4963100;28;20043;-71
2023/04/26 02:08:18;;;;;;;1.63;1.42;;;13.40;96.70;;;;;;4961112;28;20327;-71
2023/04/26 02:10:45;;;;;;;3.65;1.50;;;13.50;96.70;;;;;;4970946;28;20065;-71
2023/04/26 02:13:15;;;;;;;1.80;1.60;;;13.40;96.70;;;;;;4950368;28;20390;-70
2023/04/26 02:15:46;;;;;;;2.88;1.88;;;13.50;96.70;;;;;;4966852;28;20564;-71
2023/04/26 02:18:15;;;;;;;3.00;2.20;;;13.40;96.70;;;;;;4987601;28;20500;-70
2023/04/26 02:20:44;;;;;;;2.03;1.83;;;13.40;96.70;;;;;;4966124;28;20818;-71
2023/04/26 02:23:12;;;;;;;1.92;1.50;;;13.50;96.70;;;;;;4965784;28;20046;-71
2023/04/26 02:25:45;;;;;;;1.88;1.63;;;13.60;96.70;;;;;;4949046;28;20121;-70
2023/04/26 02:28:15;;;;;;;2.25;1.65;;;13.60;96.70;;;;;;4940707;28;20054;-71
2023/04/26 02:30:43;;;;;;;1.55;1.42;;;13.60;96.70;;;;;;4965015;28;20051;-70
2023/04/26 02:33:12;;;;;;;2.13;1.73;;;13.50;96.70;;;;;;4966365;28;20043;-70
2023/04/26 02:35:40;;;;;;;2.30;1.75;;;13.50;96.70;;;;;;4965193;28;20031;-70
2023/04/26 02:38:10;;;;;;;2.65;1.52;;;13.50;96.70;;;;;;4963258;28;20054;-72
2023/04/26 02:40:38;;;;;;;2.58;1.70;;;13.50;96.70;;;;;;4964813;28;20050;-71
2023/04/26 02:43:09;;;;;;;1.90;1.50;;;13.40;96.70;;;;;;4964206;28;20061;-71
2023/04/26 02:45:42;;;;;;;3.58;1.55;;;13.40;96.70;;;;;;4949883;28;20106;-71
2023/04/26 02:48:13;;;;;;;2.65;1.55;;;13.30;96.70;;;;;;4963612;28;20039;-71
2023/04/26 02:50:42;;;;;;;1.63;1.38;;;13.20;96.70;;;;;;4948364;28;20457;-71
2023/04/26 02:53:13;;;;;;;1.58;1.40;;;13.20;96.70;;;;;;4961644;28;20513;-70
2023/04/26 02:55:42;;;;;;;1.70;1.50;;;13.30;96.70;;;;;;4970514;28;20138;-71
2023/04/26 02:58:10;;;;;;;1.30;1.20;;;13.40;96.70;;;;;;4964327;28;20146;-71
2023/04/26 03:00:44;;;;;;;2.05;1.63;;;13.20;96.70;;;;;;4964180;28;20046;-71
2023/04/26 03:03:14;;;;;;;1.85;1.50;;;13.20;96.70;;;;;;4963850;28;20146;-70
2023/04/26 03:05:45;;;;;;;3.67;1.60;;;13.20;96.70;;;;;;4964389;28;20579;-71
2023/04/26 03:08:13;;;;;;;2.45;1.92;;;13.30;96.70;;;;;;4964529;28;20059;-72
2023/04/26 03:10:44;;;;;;;2.75;2.03;;;13.30;96.70;;;;;;4948521;28;20057;-72
2023/04/26 03:13:13;;;;;;;2.60;2.28;;;13.20;96.70;;;;;;4964992;28;20047;-72
2023/04/26 03:15:45;;;;;;;2.05;1.85;;;13.10;96.70;;;;;;4963299;28;20085;-72
2023/04/26 03:18:15;;;;;;;3.67;2.10;;;13.00;96.70;;;;;;4964217;28;20058;-72
2023/04/26 03:20:44;;;;;;;2.53;2.03;;;13.10;96.70;;;;;;4965389;28;20042;-72
2023/04/26 03:23:13;;;;;;;7.15;2.70;;;13.10;96.70;;;;;;4963379;28;20047;-72
2023/04/26 03:25:41;;;;;;;3.88;2.85;;;13.20;96.70;;;;;;4963759;28;20062;-72
2023/04/26 03:28:10;;;;;;;3.13;2.65;;;13.30;96.70;;;;;;4963082;28;20050;-72
2023/04/26 03:30:38;;;;;;;4.20;2.28;;;13.20;96.70;;;;;;4963621;28;20055;-72
2023/04/26 03:33:07;;;;;;;3.00;2.35;;;13.10;96.70;;;;;;4965957;28;20134;-72
2023/04/26 03:35:37;;;;;;;3.28;2.10;;;13.20;96.70;;;;;;4965351;28;20038;-73
2023/04/26 03:38:05;;;;;;;2.45;2.25;;;13.20;96.70;;;;;;4963850;28;20104;-72
2023/04/26 03:40:33;;;;;;;2.25;2.08;;;13.20;96.70;;;;;;4963758;28;20090;-72
2023/04/26 03:43:02;;;;;;;2.80;2.60;;;13.20;96.70;;;;;;4963142;28;20103;-72
2023/04/26 03:45:30;;;;;;;3.08;2.53;;;13.20;96.70;;;;;;4963201;28;20043;-72
2023/04/26 03:47:59;;;;;;;2.17;1.98;;;13.00;96.70;;;;;;4962623;28;20153;-72
2023/04/26 03:50:29;;;;;;;2.50;2.30;;;13.10;96.70;;;;;;4948017;28;20081;-72
2023/04/26 03:52:59;;;;;;;6.95;2.35;;;13.20;96.70;;;;;;4969469;28;20043;-71
2023/04/26 03:55:28;;;;;;;4.97;2.05;;;13.10;96.70;;;;;;4965623;28;20512;-73
2023/04/26 03:57:56;;;;;;;2.33;2.08;;;13.20;96.70;;;;;;4964273;28;20121;-72
2023/04/26 04:00:24;;;;;;;4.68;2.15;;;13.20;96.70;;;;;;4963094;28;20142;-72
2023/04/26 04:02:53;;;;;;;2.67;2.00;;;13.20;96.70;;;;;;4963175;28;20046;-72
2023/04/26 04:05:24;;;;;;;3.47;2.10;;;12.90;96.70;;;;;;4966475;28;20495;-72
2023/04/26 04:07:55;;;;;;;2.58;1.70;;;12.90;96.70;;;;;;4962750;28;20113;-72
2023/04/26 04:10:26;;;;;;;2.60;1.70;;;13.00;96.70;;;;;;4961466;28;20051;-72
2023/04/26 04:12:55;;;;;;;2.10;1.90;;;13.00;96.70;;;;;;4955779;28;20050;-71
2023/04/26 04:15:23;;;;;;;9.02;2.30;;;12.90;96.70;;;;;;4961507;28;20426;-71
2023/04/26 04:17:51;;;;;;;2.30;2.10;;;12.90;96.70;;;;;;4962013;28;20082;-72
2023/04/26 04:20:32;;;;;;;4.05;2.30;;;12.70;96.70;;;;;;4963478;28;20051;-71
2023/04/26 04:23:03;;;;;;;4.45;2.22;;;12.70;96.70;;;;;;4962672;28;20141;-72
2023/04/26 04:25:34;;;;;;;4.43;1.95;;;12.80;96.70;;;;;;4939734;28;20587;-71
2023/04/26 04:28:07;;;;;;;2.10;1.75;;;12.90;96.70;;;;;;4962645;28;20651;-72
2023/04/26 04:30:36;;;;;;;2.85;1.92;;;12.90;96.70;;;;;;4961991;28;20047;-72
2023/04/26 04:33:05;;;;;;;2.67;2.17;;;12.80;96.70;;;;;;4961952;28;20097;-72
2023/04/26 04:35:34;;;;;;;3.53;2.05;;;12.90;96.70;;;;;;4962609;28;20146;-72
2023/04/26 04:38:05;;;;;;;2.60;2.30;;;13.00;96.70;;;;;;4947020;28;20051;-72
2023/04/26 04:40:36;;;;;;;2.35;2.15;;;12.90;96.70;;;;;;4963185;28;20047;-72
2023/04/26 04:43:05;;;;;;;2.70;2.45;;;12.80;96.70;;;;;;4962176;28;20081;-72
2023/04/26 04:45:36;;;;;;;4.00;2.10;;;12.80;96.70;;;;;;4946831;28;20094;-72
2023/04/26 04:48:05;;;;;;;2.65;2.28;;;12.80;96.70;;;;;;4963150;28;20046;-72
2023/04/26 04:50:35;;;;;;;3.20;2.25;;;12.80;96.70;;;;;;4946813;28;20055;-72
2023/04/26 04:53:04;;;;;;;8.10;2.38;;;12.80;96.70;;;;;;4963946;28;20137;-72
2023/04/26 04:55:32;;;;;;;4.68;2.35;;;12.70;96.70;;;;;;4965128;28;20050;-71
2023/04/26 04:58:04;;;;;;;3.15;2.42;;;12.80;96.70;;;;;;4946805;28;20046;-71
2023/04/26 05:00:33;;;;;;;5.72;2.33;;;12.90;96.70;;;;;;4962824;28;20062;-71
2023/04/26 05:03:09;;;;;;;3.08;1.92;;;12.90;96.70;;;;;;4961962;28;20136;-72
2023/04/26 05:05:38;;;;;;;4.47;2.15;;;12.80;96.70;;;;;;4963182;28;20049;-71
2023/04/26 05:08:07;;;;;;;2.33;2.05;;;12.90;96.70;;;;;;4961607;28;20055;-72
2023/04/26 05:10:35;;;;;;;2.30;2.10;;;13.00;96.70;;;;;;4945463;28;20047;-71
2023/04/26 05:13:05;;;;;;;3.25;1.50;;;13.00;96.70;;;;;;4961329;28;20142;-71
2023/04/26 05:15:34;;;;;;;10.95;2.50;;;12.90;96.70;;;;;;4961889;28;20051;-72
2023/04/26 05:18:03;;;;;;;2.53;1.80;;;12.90;96.70;;;;;;4963405;28;20043;-71
2023/04/26 05:20:32;;;;;;;5.03;2.20;;;13.00;96.70;;;;;;4961885;28;20480;-71
2023/04/26 05:23:00;;;;;;;2.00;1.65;;;13.00;96.70;;;;;;4960552;28;20050;-72
2023/04/26 05:25:29;;;;;;;2.10;1.88;;;13.00;96.70;;;;;;4961862;28;20799;-71
2023/04/26 05:28:15;;;;;;;1.65;1.55;;;13.00;96.70;;;;;;4962013;28;20137;-71
2023/04/26 05:31:03;;;;;;;2.90;1.83;;;13.00;96.70;;;;;;4961034;28;20146;-71
2023/04/26 05:33:53;;;;;;;2.10;1.65;;;13.00;96.70;;;;;;4962871;28;20051;-72
2023/04/26 05:36:42;;;;;;;1.92;1.73;;;13.00;96.70;;;;;;4962468;28;20062;-72
2023/04/26 05:39:11;;;;;;;5.93;1.88;;;12.90;96.70;;;;;;4955024;28;20050;-72
2023/04/26 05:41:39;;;;;;;2.00;1.60;;;12.90;96.70;;;;;;4961856;28;20046;-71
2023/04/26 05:44:09;;;;;;;2.15;1.95;;;12.90;96.70;;;;;;4961810;28;20047;-72
2023/04/26 05:46:38;;;;;;;4.47;2.00;;;13.00;96.70;;;;;;4966379;28;20042;-71
2023/04/26 05:49:08;;;;;;;7.43;2.35;;;13.20;96.70;;;;;;4963590;28;20059;-72
2023/04/26 05:51:36;;;;;;;2.10;1.80;;;13.10;96.70;;;;;;4964620;28;20053;-71
2023/04/26 05:54:04;;;;;;;3.60;2.30;;;13.00;96.70;;;;;;4952595;28;20043;-71
2023/04/26 05:56:33;;;;;;;4.13;2.25;;;13.00;96.70;;;;;;4966340;28;20409;-71
2023/04/26 05:59:02;;;;;;;2.33;2.13;;;13.10;96.70;;;;;;4964836;28;20432;-72
2023/04/26 06:01:34;;;;;;;2.60;2.00;;;13.10;96.70;;;;;;4961400;28;20046;-71
2023/04/26 06:04:03;;;;;;;3.05;2.75;;;13.10;96.70;;;;;;4965444;28;20051;-72
2023/04/26 06:06:41;;;;;;;3.60;2.25;;;13.10;96.70;;;;;;4964892;28;20182;-72
2023/04/26 06:09:10;;;;;;;6.50;4.10;;;13.20;96.70;;;;;;4964708;28;20055;-71
2023/04/26 06:11:38;;;;;;;5.40;3.50;;;13.10;96.70;;;;;;4964257;28;20039;-72
2023/04/26 06:14:07;;;;;;;3.60;2.83;;;13.10;96.70;;;;;;4964031;28;20046;-71
2023/04/26 06:17:04;;;;;;;5.03;3.75;;;13.10;96.70;;;;;;4966951;28;20071;-71
2023/04/26 06:19:33;;;;;;;5.43;4.18;;;13.20;96.70;;;;;;4945578;28;20050;-71
2023/04/26 06:22:01;;;;;;;6.75;3.72;;;13.30;96.70;;;;;;4964476;28;20501;-71
2023/04/26 06:24:30;;;;;;;4.93;3.70;;;13.30;96.70;;;;;;4963962;28;20051;-72
2023/04/26 06:26:58;;;;;;;3.75;3.30;;;13.40;96.70;;;;;;4963282;28;20050;-72
2023/04/26 06:29:31;;;;;;;4.70;3.20;;;13.40;96.70;;;;;;4967260;28;20051;-72
2023/04/26 06:32:00;;;;;;;4.65;3.45;;;13.50;96.70;;;;;;4949937;28;20461;-73
2023/04/26 06:34:30;;;;;;;3.45;3.15;;;13.50;96.70;;;;;;4965077;28;20050;-72
2023/04/26 06:36:59;;;;;;;4.90;3.42;;;13.60;96.70;;;;;;4962020;28;20051;-72
2023/04/26 06:39:28;;;;;;;3.42;3.08;;;13.70;96.70;;;;;;4957091;28;20066;-72
2023/04/26 06:41:56;;;;;;;7.18;4.05;;;13.80;96.70;;;;;;4948254;28;20046;-72
2023/04/26 06:45:15;;;;;;;6.28;3.50;;;13.90;96.70;;;;;;4970346;28;20057;-73
2023/04/26 06:47:44;;;;;;;4.13;3.15;;;13.90;96.70;;;;;;4962832;28;20859;-72
2023/04/26 06:50:14;;;;;;;5.43;3.47;;;14.00;96.70;;;;;;4964634;28;20053;-72
2023/04/26 06:52:42;;;;;;;3.70;3.33;;;14.00;96.70;;;;;;4973564;28;20050;-71
2023/04/26 06:55:11;;;;;;;3.90;3.50;;;14.10;96.70;;;;;;4978749;28;20126;-72
2023/04/26 06:57:40;;;;;;;3.67;3.38;;;14.00;96.70;;;;;;4964826;28;20047;-72
2023/04/26 07:00:09;;;;;;;5.32;3.70;;;13.90;96.70;;;;;;4964348;28;20469;-72
2023/04/26 07:02:38;;;;;;;4.80;3.78;;;13.90;96.70;;;;;;4966582;28;20043;-73
2023/04/26 07:05:07;;;;;;;3.65;3.28;;;14.00;96.70;;;;;;4972919;28;20412;-72
2023/04/26 07:07:37;;;;;;;4.70;3.20;;;14.10;96.70;;;;;;4963644;28;20170;-72
2023/04/26 07:10:07;;;;;;;4.15;3.67;;;14.20;96.70;;;;;;4956915;28;21196;-72
2023/04/26 07:12:35;;;;;;;6.35;4.10;;;14.20;96.70;;;;;;4964185;28;20598;-72
2023/04/26 07:15:05;;;;;;;4.80;4.18;;;14.20;96.70;;;;;;4964929;28;20070;-72
2023/04/26 07:17:34;;;;;;;5.10;3.55;;;14.10;96.70;;;;;;4972703;28;20080;-72
2023/04/26 07:20:02;;;;;;;4.43;3.85;;;14.30;96.70;;;;;;4963400;28;20395;-72
2023/04/26 07:22:30;;;;;;;6.53;4.03;;;14.50;96.70;;;;;;4965048;28;20588;-72
2023/04/26 07:25:00;;;;;;;5.03;3.92;;;14.60;96.70;;;;;;4963878;28;20081;-72
2023/04/26 07:27:30;;;;;;;5.00;3.53;;;14.60;96.70;;;;;;4963871;28;20058;-72
2023/04/26 07:29:58;;;;;;;6.65;4.85;;;14.60;96.70;;;;;;4963834;28;20054;-72
2023/04/26 07:32:26;;;;;;;5.68;4.82;;;14.80;96.70;;;;;;4963519;28;20074;-72
2023/04/26 07:34:54;;;;;;;6.28;5.55;;;14.80;96.70;;;;;;4964834;28;20047;-72
2023/04/26 07:37:22;;;;;;;6.35;5.28;;;14.70;96.70;;;;;;4970343;28;20425;-72
2023/04/26 07:39:51;;;;;;;7.57;5.50;;;14.60;96.70;;;;;;4963537;28;20176;-72
2023/04/26 07:42:22;;;;;;;5.25;4.68;;;14.60;96.70;;;;;;4964661;28;20556;-73
2023/04/26 07:44:50;;;;;;;4.82;4.32;;;14.50;96.70;;;;;;4965431;28;20067;-72
2023/04/26 07:47:18;;;;;;;5.45;4.68;;;14.60;96.70;;;;;;4963190;28;20050;-72
2023/04/26 07:49:51;;;;;;;7.53;5.03;;;14.80;96.70;;;;;;4948227;28;20173;-72
2023/04/26 07:52:19;;;;;;;5.95;4.80;;;14.80;96.70;;;;;;4963509;28;20055;-72
2023/04/26 07:54:47;;;;;;;5.53;4.40;;;14.70;96.70;;;;;;4964040;28;20047;-73
2023/04/26 07:57:16;;;;;;;5.75;4.60;;;14.80;96.70;;;;;;4964031;28;20404;-72
2023/04/26 07:59:45;;;;;;;5.93;4.78;;;14.90;96.70;;;;;;4968945;28;20046;-72
2023/04/26 08:02:15;;;;;;;4.35;3.95;;;14.90;96.70;;;;;;4957264;28;20050;-72
2023/04/26 08:04:48;;;;;;;5.65;3.65;;;14.90;96.70;;;;;;4965305;28;20551;-72
2023/04/26 08:07:17;;;;;;;4.35;3.95;;;15.00;96.70;;;;;;4962304;28;20051;-72
2023/04/26 08:09:47;;;;;;;5.20;4.03;;;15.00;96.70;;;;;;4964944;28;20050;-72
2023/04/26 08:12:16;;;;;;;4.30;3.90;;;15.00;96.70;;;;;;4959179;28;20089;-72
2023/04/26 08:14:45;;;;;;;4.28;3.88;;;15.00;96.70;;;;;;4956117;28;20043;-72
2023/04/26 08:17:13;;;;;;;5.07;3.50;;;15.00;96.70;;;;;;4946220;28;20051;-71
2023/04/26 08:19:42;;;;;;;6.05;3.80;;;15.00;96.70;;;;;;4963092;28;20055;-72
2023/04/26 08:22:10;;;;;;;7.93;4.10;;;15.10;96.70;;;;;;4969843;28;20038;-71
2023/04/26 08:24:53;;;;;;;4.45;3.95;;;15.20;96.70;;;;;;4964268;28;20043;-71
2023/04/26 08:27:22;;;;;;;3.40;3.10;;;15.20;96.70;;;;;;4963539;28;20050;-71
2023/04/26 08:29:52;;;;;;;4.93;3.55;;;15.30;96.70;;;;;;4977776;28;20065;-72
2023/04/26 08:32:20;;;;;;;3.92;3.40;;;15.40;96.70;;;;;;4963498;28;20046;-72
2023/04/26 08:34:49;;;;;;;4.15;3.17;;;15.50;96.70;;;;;;4964498;28;20047;-72
2023/04/26 08:37:17;;;;;;;4.68;3.10;;;15.60;96.70;;;;;;4965320;28;20155;-72
2023/04/26 08:39:45;;;;;;;3.33;3.03;;;15.70;96.70;;;;;;4962584;28;20046;-72
2023/04/26 08:42:16;;;;;;;3.70;3.05;;;15.70;96.70;;;;;;4962070;28;20078;-72
2023/04/26 08:44:45;;;;;;;3.83;3.28;;;15.80;96.70;;;;;;4964241;28;20073;-72
2023/04/26 08:47:17;;;;;;;4.28;3.00;;;15.80;96.70;;;;;;4962500;28;20058;-71
2023/04/26 08:50:02;;;;;;;4.93;3.35;;;15.80;96.70;;;;;;4946250;28;20057;-72
2023/04/26 08:52:31;;;;;;;3.70;3.40;;;15.90;96.70;;;;;;4959101;28;20062;-72
2023/04/26 08:55:00;;;;;;;3.90;2.95;;;16.00;96.70;;;;;;4963832;28;20070;-72
2023/04/26 08:57:33;;;;;;;3.78;2.60;;;16.00;96.70;;;;;;4962356;28;20078;-72
2023/04/26 09:00:04;;;;;;;3.33;2.42;;;16.10;96.70;;;;;;4964670;28;20074;-72
2023/04/26 09:02:35;;;;;;;3.88;2.20;;;16.20;96.70;;;;;;4962211;28;20125;-72
2023/04/26 09:05:06;;;;;;;3.42;2.72;;;16.40;96.70;;;;;;4963468;28;20055;-72
2023/04/26 09:07:43;;;;;;;2.85;2.05;;;16.60;96.70;;;;;;4963045;28;20495;-72
2023/04/26 09:10:12;;;;;;;2.60;2.00;;;16.70;96.70;;;;;;4963656;28;20053;-73
2023/04/26 09:12:40;;;;;;;2.88;1.80;;;16.80;96.70;;;;;;4945287;28;20042;-72
2023/04/26 09:15:10;;;;;;;4.60;1.63;;;16.80;96.70;;;;;;4963347;28;20169;-73
2023/04/26 09:17:40;;;;;;;2.38;1.20;;;16.90;96.70;;;;;;4962073;28;20047;-72
2023/04/26 09:20:21;;;;;;;2.25;1.10;;;17.10;96.70;;;;;;4963683;28;20587;-73
2023/04/26 09:22:50;;;;;;;2.17;1.10;;;17.20;96.70;;;;;;4963325;28;20070;-72
2023/04/26 09:25:25;;;;;;;1.52;1.08;;;17.30;96.70;;;;;;4963332;28;20057;-73
2023/04/26 09:27:54;;;;;;;3.05;1.45;;;17.30;96.70;;;;;;4963066;28;20519;-72
2023/04/26 09:30:22;;;;;;;1.40;0.70;;;17.30;96.70;;;;;;4961556;28;20047;-72
2023/04/26 09:32:55;;;;;;;2.50;1.00;;;17.30;96.70;;;;;;4962008;28;20066;-72
2023/04/26 09:35:30;;;;;;;1.83;1.10;;;17.30;96.70;;;;;;4945832;28;20054;-73
2023/04/26 09:38:00;;;;;;;1.58;0.80;;;17.40;96.70;;;;;;4945715;28;20058;-72
2023/04/26 09:40:40;;;;;;;1.50;0.63;;;17.50;96.70;;;;;;4962283;28;20047;-72
2023/04/26 09:43:10;;;;;;;3.33;0.90;;;17.60;96.70;;;;;;4963019;28;20401;-72
2023/04/26 09:45:45;;;;;;;2.80;0.75;;;17.70;96.70;;;;;;4962740;28;20693;-72
2023/04/26 09:48:21;;;;;;;1.90;0.77;;;17.90;96.70;;;;;;4956585;28;20177;-72
2023/04/26 09:50:51;;;;;;;4.65;1.40;;;18.00;96.70;;;;;;4961464;28;20071;-72
2023/04/26 09:53:27;;;;;;;1.20;0.93;;;17.90;96.70;;;;;;4962308;28;20047;-72
2023/04/26 09:55:56;;;;;;;1.42;0.77;;;18.00;96.70;;;;;;4963314;28;20050;-72
2023/04/26 09:58:24;;;;;;;1.90;0.95;;;17.90;96.70;;;;;;4963950;28;20130;-71
2023/04/26 10:00:53;;;;;;;1.80;1.30;;;18.10;96.70;;;;;;4963308;28;20045;-72
2023/04/26 10:03:23;;;;;;;3.80;1.38;;;18.20;96.70;;;;;;4961994;28;20058;-72
2023/04/26 10:05:52;;;;;;;3.67;1.52;;;18.10;96.70;;;;;;4962258;28;20101;-72
2023/04/26 10:08:31;;;;;;;2.28;1.40;;;18.20;96.70;;;;;;4961737;28;20065;-72
2023/04/26 10:11:02;;;;;;;2.38;1.35;;;18.20;96.70;;;;;;4945109;28;20058;-72
2023/04/26 10:13:31;;;;;;;4.57;1.70;;;18.40;96.70;;;;;;4960458;28;20043;-73
2023/04/26 10:16:00;;;;;;;4.60;1.30;;;18.50;96.70;;;;;;4960695;28;20039;-72
2023/04/26 10:18:31;;;;;;;1.35;1.05;;;18.50;96.70;;;;;;4960128;28;20046;-72
2023/04/26 10:21:02;;;;;;;2.13;1.08;;;18.50;96.70;;;;;;4962096;28;20054;-72
2023/04/26 10:23:32;;;;;;;2.88;0.90;;;18.60;96.70;;;;;;4962480;28;20181;-72
2023/04/26 10:26:00;;;;;;;2.35;0.80;;;18.90;96.70;;;;;;4962123;28;20227;-72
2023/04/26 10:28:57;;;;;;;2.10;1.10;;;19.10;96.70;;;;;;4961413;28;20042;-72
2023/04/26 10:32:11;;;;;;;1.90;1.08;;;19.30;96.70;;;;;;4963075;28;20123;-72
2023/04/26 10:34:41;;;;;;;2.65;1.30;;;19.40;96.70;;;;;;4941209;28;20062;-72
2023/04/26 10:37:10;;;;;;;2.50;1.00;;;19.60;96.70;;;;;;4963575;28;20673;-73
2023/04/26 10:39:39;;;;;;;1.90;1.00;;;19.70;96.70;;;;;;4965689;28;20043;-73
2023/04/26 10:42:24;;;;;;;3.00;1.30;;;19.80;96.70;;;;;;4965410;28;20045;-73
2023/04/26 10:44:54;;;;;;;1.77;0.75;;;19.80;96.70;;;;;;4956450;28;20464;-72
2023/04/26 10:47:24;;;;;;;0.93;0.70;;;19.90;96.70;;;;;;4961327;28;20442;-72
2023/04/26 10:50:02;;;;;;;1.52;0.75;;;19.90;96.70;;;;;;4964012;28;20043;-71
2023/04/26 10:52:33;;;;;;;2.35;0.88;;;20.10;96.70;;;;;;4962198;28;20650;-71
2023/04/26 10:55:01;;;;;;;1.52;0.60;;;20.30;96.70;;;;;;4963160;28;20194;-70
2023/04/26 10:57:51;;;;;;;1.50;0.68;;;20.40;96.70;;;;;;4964365;28;20051;-72
2023/04/26 11:00:28;;;;;;;0.90;0.60;;;20.40;96.70;;;;;;4962667;28;20382;-72
2023/04/26 11:03:03;;;;;;;0.93;0.55;;;20.70;96.70;;;;;;4961457;28;20101;-71
2023/04/26 11:05:46;;;;;;;1.52;0.68;;;20.90;96.70;;;;;;4947410;28;20425;-71
2023/04/26 11:08:16;;;;;;;1.23;0.63;;;20.90;96.70;;;;;;4910610;28;1544230;-71
2023/04/26 11:10:50;;;;;;;1.95;0.60;;;21.00;96.70;;;;;;4966160;28;20202;-72
2023/04/26 11:13:18;;;;;;;1.77;0.60;;;21.10;96.70;;;;;;4965569;28;20051;-72
2023/04/26 11:15:51;;;;;;;1.58;0.70;;;21.10;96.70;;;;;;4964403;28;20051;-72
2023/04/26 11:18:20;;;;;;;1.55;0.63;;;21.30;96.70;;;;;;4961659;28;20046;-72
2023/04/26 11:20:50;;;;;;;0.70;0.60;;;21.30;96.70;;;;;;4965336;28;20042;-72
2023/04/26 11:23:19;;;;;;;1.52;0.93;;;21.40;96.70;;;;;;4963302;28;20051;-72
2023/04/26 11:25:47;;;;;;;1.27;0.43;;;21.40;96.70;;;;;;4965380;28;20117;-72
2023/04/26 11:28:17;;;;;;;2.33;0.50;;;21.50;96.70;;;;;;4963377;28;20050;-72
2023/04/26 11:30:45;;;;;;;1.45;0.60;;;21.70;96.70;;;;;;4963645;28;20568;-72
2023/04/26 11:33:21;;;;;;;1.65;0.70;;;21.80;96.70;;;;;;4964612;28;20043;-73
2023/04/26 11:35:54;;;;;;;0.90;0.60;;;21.80;96.70;;;;;;4957558;28;20054;-72
2023/04/26 11:38:23;;;;;;;2.30;0.75;;;21.70;96.70;;;;;;4964336;28;20060;-73
2023/04/26 11:40:56;;;;;;;1.25;0.60;;;21.80;96.70;;;;;;4963903;28;20086;-72
2023/04/26 11:43:33;;;;;;;4.35;0.85;;;22.00;96.70;;;;;;4963673;28;20039;-73
2023/04/26 11:46:01;;;;;;;1.98;0.50;;;22.00;96.70;;;;;;4958462;28;20057;-72
2023/04/26 11:48:31;;;;;;;2.28;0.43;;;22.20;96.70;;;;;;4965299;28;20057;-72
2023/04/26 11:51:03;;;;;;;2.92;0.52;;;22.40;96.70;;;;;;4965109;28;20133;-72
2023/04/26 11:53:37;;;;;;;0.75;0.50;;;22.60;96.70;;;;;;4965406;28;20063;-73
2023/04/26 11:56:14;;;;;;;0.93;0.50;;;22.70;96.70;;;;;;4965623;28;20042;-73
2023/04/26 11:58:46;;;;;;;0.93;0.50;;;22.70;96.70;;;;;;4970731;28;20497;-73
2023/04/26 12:01:20;;;;;;;1.77;0.65;;;22.70;96.70;;;;;;4961339;28;20047;-72
2023/04/26 12:04:09;;;;;;;1.95;0.60;;;22.80;96.70;;;;;;4965036;28;20050;-73
2023/04/26 12:06:43;;;;;;;0.50;0.40;;;22.40;96.70;;;;;;4964490;28;20046;-73
2023/04/26 12:09:12;;;;;;;1.73;0.60;;;22.30;96.70;;;;;;4959679;28;20109;-72
2023/04/26 12:11:40;;;;;;;1.05;0.60;;;22.40;96.70;;;;;;4947223;28;20050;-73
2023/04/26 12:14:08;;;;;;;0.68;0.40;;;22.70;96.70;;;;;;4963513;28;20405;-72
2023/04/26 12:16:37;;;;;;;1.80;0.50;;;22.60;96.70;;;;;;4968103;28;20056;-73
2023/04/26 12:19:08;;;;;;;0.65;0.40;;;22.50;96.70;;;;;;4963473;28;20051;-72
2023/04/26 12:21:42;;;;;;;3.35;0.65;;;22.80;96.70;;;;;;4963010;28;20109;-72
2023/04/26 12:24:23;;;;;;;1.13;0.40;;;22.80;96.70;;;;;;4961849;28;20497;-73
2023/04/26 12:26:52;;;;;;;1.55;0.60;;;22.80;96.70;;;;;;4963707;28;20058;-72
2023/04/26 12:29:20;;;;;;;3.63;0.50;;;22.70;96.70;;;;;;4964457;28;20058;-72
2023/04/26 12:31:48;;;;;;;1.15;0.40;;;22.70;96.70;;;;;;4962837;28;20173;-73
2023/04/26 12:34:16;;;;;;;3.15;0.60;;;22.90;96.70;;;;;;4962459;28;20150;-72
2023/04/26 12:36:46;;;;;;;1.30;0.47;;;23.20;96.70;;;;;;4964705;28;20054;-73
2023/04/26 12:39:15;;;;;;;1.65;0.73;;;23.30;96.70;;;;;;4961129;28;20054;-73
2023/04/26 12:41:45;;;;;;;2.90;0.40;;;23.30;96.70;;;;;;4961888;28;20086;-72
2023/04/26 12:44:13;;;;;;;1.90;0.32;;;23.30;96.70;;;;;;4954425;28;20153;-73
2023/04/26 12:46:41;;;;;;;0.60;0.38;;;23.30;96.70;;;;;;4964120;28;20081;-73
2023/04/26 12:49:12;;;;;;;1.67;0.45;;;23.50;96.70;;;;;;4963291;28;20050;-73
2023/04/26 12:51:40;;;;;;;1.45;0.32;;;23.60;96.70;;;;;;4964331;28;20786;-72
2023/04/26 12:54:10;;;;;;;0.68;0.20;;;23.60;96.70;;;;;;4963603;28;20046;-72
2023/04/26 12:56:42;;;;;;;1.20;0.30;;;23.70;96.50;;;;;;4962602;28;20039;-73
2023/04/26 12:59:10;;;;;;;0.43;0.20;;;23.50;93.90;;;;;;4962420;28;20054;-73
2023/04/26 13:01:38;;;;;;;0.82;0.20;;;23.60;95.50;;;;;;4956957;28;20039;-72
2023/04/26 13:04:07;;;;;;;0.40;0.20;;;23.80;95.60;;;;;;4964529;28;20102;-72